Poplar Flat, Kentucky
Current Conditions -  °F | °C
As of 1:15 AM on Monday 22 Dec 2014 (Local Time) from KFGX Reporting Station
Scattered Clouds Scattered Clouds  
Wind Chill: 20°   Ceiling: Unl
Heat Index: 28°   Visibility: 10mi
Dew Point: 25°   Wind: 8mph
Humidity: 89%   Direction: 100°E
Pressure: 30.08"   Gusts: NA
Location:  38.5845°N, 83.5468°W
Report Text: KFGX 220615Z AUTO 10007KT 10SM SCT050 M02/M04 A3008 RMK AO2 T10211037
Loading
Personal Weather Stations






























Interactive Weather Map New forecast layout! Learn more

10-Day Weather Forecast

Advertisements
Track Severe Weather on mobile